Marianglas, United Kingdom
Current Conditions -  °F | °C
As of 11:50 AM on Sunday 21 Dec 2014 (Local Time) from EGOV Reporting Station
Broken Clouds Broken Clouds  
Wind Chill: 52°   Ceiling: 1200
Heat Index: 52°   Visibility: 6mi
Dew Point: 48°   Wind: 31mph
Humidity: 88%   Direction: 220°SW
Pressure: 30.12"   Gusts: NA
Location:  53.33°N, 4.25°W
Report Text: EGOV 211150Z AUTO 22027KT 9999 BKN012/// BKN020/// 11/09 Q1020
Loading
Personal Weather Stations






























Interactive Weather Map New forecast layout! Learn more

10-Day Weather Forecast

Advertisements
Track Severe Weather on mobile